sensor_id;sensor_type;location;lat;lon;timestamp;P1;durP1;ratioP1;P2;durP2;ratioP2
37047;SDS011;23227;48.780;9.210;2023-10-13T00:00:27;3.45;;;1.50;;
37047;SDS011;23227;48.780;9.210;2023-10-13T00:03:31;4.40;;;1.83;;
37047;SDS011;23227;48.780;9.210;2023-10-13T00:06:33;3.13;;;1.65;;
37047;SDS011;23227;48.780;9.210;2023-10-13T00:09:38;1.80;;;1.30;;
37047;SDS011;23227;48.780;9.210;2023-10-13T00:12:41;3.25;;;1.45;;
37047;SDS011;23227;48.780;9.210;2023-10-13T00:15:52;2.07;;;1.30;;
37047;SDS011;23227;48.780;9.210;2023-10-13T00:18:59;2.70;;;1.57;;
37047;SDS011;23227;48.780;9.210;2023-10-13T00:22:02;2.08;;;1.65;;
37047;SDS011;23227;48.780;9.210;2023-10-13T00:25:12;2.03;;;1.47;;
37047;SDS011;23227;48.780;9.210;2023-10-13T00:28:27;2.43;;;1.43;;
37047;SDS011;23227;48.780;9.210;2023-10-13T00:31:39;3.47;;;1.60;;
37047;SDS011;23227;48.780;9.210;2023-10-13T00:34:45;4.13;;;1.70;;
37047;SDS011;23227;48.780;9.210;2023-10-13T00:37:47;3.20;;;1.52;;
37047;SDS011;23227;48.780;9.210;2023-10-13T00:40:54;3.27;;;1.83;;
37047;SDS011;23227;48.780;9.210;2023-10-13T00:44:04;4.43;;;1.67;;
37047;SDS011;23227;48.780;9.210;2023-10-13T00:47:09;4.07;;;1.80;;
37047;SDS011;23227;48.780;9.210;2023-10-13T00:50:19;3.33;;;1.33;;
37047;SDS011;23227;48.780;9.210;2023-10-13T00:53:22;4.70;;;1.48;;
37047;SDS011;23227;48.780;9.210;2023-10-13T00:56:24;2.80;;;1.40;;
37047;SDS011;23227;48.780;9.210;2023-10-13T00:59:29;3.77;;;1.67;;
37047;SDS011;23227;48.780;9.210;2023-10-13T01:02:36;2.70;;;1.60;;
37047;SDS011;23227;48.780;9.210;2023-10-13T01:05:41;2.37;;;1.30;;
37047;SDS011;23227;48.780;9.210;2023-10-13T01:08:45;2.93;;;1.40;;
37047;SDS011;23227;48.780;9.210;2023-10-13T01:11:52;3.53;;;1.50;;
37047;SDS011;23227;48.780;9.210;2023-10-13T01:14:55;3.07;;;1.40;;
37047;SDS011;23227;48.780;9.210;2023-10-13T01:18:08;1.50;;;1.10;;
37047;SDS011;23227;48.780;9.210;2023-10-13T01:21:13;2.33;;;1.40;;
37047;SDS011;23227;48.780;9.210;2023-10-13T01:24:19;4.97;;;1.60;;
37047;SDS011;23227;48.780;9.210;2023-10-13T01:27:27;2.80;;;1.20;;
37047;SDS011;23227;48.780;9.210;2023-10-13T01:30:30;2.65;;;1.30;;
37047;SDS011;23227;48.780;9.210;2023-10-13T01:33:32;2.83;;;1.40;;
37047;SDS011;23227;48.780;9.210;2023-10-13T01:36:36;2.90;;;1.57;;
37047;SDS011;23227;48.780;9.210;2023-10-13T01:39:43;2.03;;;1.33;;
37047;SDS011;23227;48.780;9.210;2023-10-13T01:42:49;2.47;;;1.23;;
37047;SDS011;23227;48.780;9.210;2023-10-13T01:45:56;2.90;;;1.43;;
37047;SDS011;23227;48.780;9.210;2023-10-13T01:48:59;2.45;;;1.42;;
37047;SDS011;23227;48.780;9.210;2023-10-13T01:52:00;3.13;;;1.40;;
37047;SDS011;23227;48.780;9.210;2023-10-13T01:55:06;4.30;;;1.53;;
37047;SDS011;23227;48.780;9.210;2023-10-13T01:58:12;3.03;;;1.50;;
37047;SDS011;23227;48.780;9.210;2023-10-13T02:01:18;6.00;;;1.47;;
37047;SDS011;23227;48.780;9.210;2023-10-13T02:04:28;2.20;;;1.43;;
37047;SDS011;23227;48.780;9.210;2023-10-13T02:07:34;2.83;;;1.30;;
37047;SDS011;23227;48.780;9.210;2023-10-13T02:10:41;5.13;;;1.27;;
37047;SDS011;23227;48.780;9.210;2023-10-13T02:13:44;3.83;;;1.93;;
37047;SDS011;23227;48.780;9.210;2023-10-13T02:16:54;2.67;;;1.33;;
37047;SDS011;23227;48.780;9.210;2023-10-13T02:20:12;2.00;;;1.23;;
37047;SDS011;23227;48.780;9.210;2023-10-13T02:23:16;2.03;;;1.33;;
37047;SDS011;23227;48.780;9.210;2023-10-13T02:26:20;2.80;;;1.27;;
37047;SDS011;23227;48.780;9.210;2023-10-13T02:32:40;3.50;;;1.17;;
37047;SDS011;23227;48.780;9.210;2023-10-13T02:35:45;3.27;;;1.27;;
37047;SDS011;23227;48.780;9.210;2023-10-13T02:38:54;2.80;;;1.50;;
37047;SDS011;23227;48.780;9.210;2023-10-13T02:42:00;3.70;;;1.33;;
37047;SDS011;23227;48.780;9.210;2023-10-13T02:45:09;1.50;;;1.00;;
37047;SDS011;23227;48.780;9.210;2023-10-13T02:48:13;1.53;;;1.20;;
37047;SDS011;23227;48.780;9.210;2023-10-13T02:51:19;1.50;;;1.03;;
37047;SDS011;23227;48.780;9.210;2023-10-13T02:54:27;3.03;;;1.20;;
37047;SDS011;23227;48.780;9.210;2023-10-13T02:57:33;1.70;;;1.20;;
37047;SDS011;23227;48.780;9.210;2023-10-13T03:00:36;2.97;;;1.17;;
37047;SDS011;23227;48.780;9.210;2023-10-13T03:03:42;2.23;;;1.20;;
37047;SDS011;23227;48.780;9.210;2023-10-13T03:06:53;2.10;;;0.93;;
37047;SDS011;23227;48.780;9.210;2023-10-13T03:09:56;2.20;;;1.25;;
37047;SDS011;23227;48.780;9.210;2023-10-13T03:13:03;2.70;;;1.03;;
37047;SDS011;23227;48.780;9.210;2023-10-13T03:16:12;1.90;;;1.10;;
37047;SDS011;23227;48.780;9.210;2023-10-13T03:19:17;2.73;;;1.33;;
37047;SDS011;23227;48.780;9.210;2023-10-13T03:22:20;2.60;;;1.27;;
37047;SDS011;23227;48.780;9.210;2023-10-13T03:25:32;2.47;;;1.30;;
37047;SDS011;23227;48.780;9.210;2023-10-13T03:28:45;2.63;;;1.00;;
37047;SDS011;23227;48.780;9.210;2023-10-13T03:31:53;2.37;;;1.10;;
37047;SDS011;23227;48.780;9.210;2023-10-13T03:35:08;2.23;;;1.17;;
37047;SDS011;23227;48.780;9.210;2023-10-13T03:38:14;1.57;;;1.07;;
37047;SDS011;23227;48.780;9.210;2023-10-13T03:41:19;2.00;;;1.13;;
37047;SDS011;23227;48.780;9.210;2023-10-13T03:44:23;2.40;;;1.30;;
37047;SDS011;23227;48.780;9.210;2023-10-13T03:47:31;2.40;;;1.43;;
37047;SDS011;23227;48.780;9.210;2023-10-13T03:50:34;1.80;;;1.17;;
37047;SDS011;23227;48.780;9.210;2023-10-13T03:53:38;1.60;;;1.20;;
37047;SDS011;23227;48.780;9.210;2023-10-13T03:56:54;1.90;;;1.20;;
37047;SDS011;23227;48.780;9.210;2023-10-13T04:03:09;1.70;;;1.40;;
37047;SDS011;23227;48.780;9.210;2023-10-13T04:06:17;1.30;;;1.00;;
37047;SDS011;23227;48.780;9.210;2023-10-13T04:09:22;2.17;;;1.00;;
37047;SDS011;23227;48.780;9.210;2023-10-13T04:12:39;1.33;;;0.90;;
37047;SDS011;23227;48.780;9.210;2023-10-13T04:16:00;1.37;;;0.80;;
37047;SDS011;23227;48.780;9.210;2023-10-13T04:19:36;2.10;;;1.20;;
37047;SDS011;23227;48.780;9.210;2023-10-13T04:22:58;12.25;;;3.97;;
37047;SDS011;23227;48.780;9.210;2023-10-13T04:26:21;14.93;;;5.00;;
37047;SDS011;23227;48.780;9.210;2023-10-13T04:29:22;14.40;;;4.10;;
37047;SDS011;23227;48.780;9.210;2023-10-13T04:32:48;16.33;;;5.60;;
37047;SDS011;23227;48.780;9.210;2023-10-13T04:36:08;13.97;;;5.03;;
37047;SDS011;23227;48.780;9.210;2023-10-13T04:39:17;9.70;;;4.17;;
37047;SDS011;23227;48.780;9.210;2023-10-13T04:42:30;13.07;;;4.13;;
37047;SDS011;23227;48.780;9.210;2023-10-13T04:45:50;16.53;;;4.27;;
37047;SDS011;23227;48.780;9.210;2023-10-13T04:48:56;13.13;;;4.47;;
37047;SDS011;23227;48.780;9.210;2023-10-13T04:52:03;13.23;;;4.70;;
37047;SDS011;23227;48.780;9.210;2023-10-13T04:55:28;20.80;;;5.67;;
37047;SDS011;23227;48.780;9.210;2023-10-13T04:59:01;28.05;;;6.15;;
37047;SDS011;23227;48.780;9.210;2023-10-13T05:02:24;20.50;;;5.30;;
37047;SDS011;23227;48.780;9.210;2023-10-13T05:05:43;19.70;;;5.73;;
37047;SDS011;23227;48.780;9.210;2023-10-13T05:09:07;19.47;;;5.10;;
37047;SDS011;23227;48.780;9.210;2023-10-13T05:12:27;21.10;;;5.57;;
37047;SDS011;23227;48.780;9.210;2023-10-13T05:15:48;15.40;;;4.90;;
37047;SDS011;23227;48.780;9.210;2023-10-13T05:19:10;16.87;;;4.77;;
37047;SDS011;23227;48.780;9.210;2023-10-13T05:22:31;20.77;;;5.10;;
37047;SDS011;23227;48.780;9.210;2023-10-13T05:25:51;10.43;;;4.10;;
37047;SDS011;23227;48.780;9.210;2023-10-13T05:29:12;19.80;;;5.83;;
37047;SDS011;23227;48.780;9.210;2023-10-13T05:32:33;16.70;;;4.90;;
37047;SDS011;23227;48.780;9.210;2023-10-13T05:35:53;11.47;;;4.73;;
37047;SDS011;23227;48.780;9.210;2023-10-13T05:39:15;12.50;;;4.87;;
37047;SDS011;23227;48.780;9.210;2023-10-13T05:42:36;16.70;;;5.20;;
37047;SDS011;23227;48.780;9.210;2023-10-13T05:45:57;18.90;;;5.03;;
37047;SDS011;23227;48.780;9.210;2023-10-13T05:49:21;12.40;;;4.43;;
37047;SDS011;23227;48.780;9.210;2023-10-13T05:52:51;12.90;;;4.83;;
37047;SDS011;23227;48.780;9.210;2023-10-13T05:56:12;10.07;;;4.40;;
37047;SDS011;23227;48.780;9.210;2023-10-13T05:59:34;11.23;;;4.57;;
37047;SDS011;23227;48.780;9.210;2023-10-13T06:02:56;9.85;;;4.35;;
37047;SDS011;23227;48.780;9.210;2023-10-13T06:06:16;12.90;;;4.50;;
37047;SDS011;23227;48.780;9.210;2023-10-13T06:09:37;11.97;;;4.83;;
37047;SDS011;23227;48.780;9.210;2023-10-13T06:12:58;17.53;;;5.47;;
37047;SDS011;23227;48.780;9.210;2023-10-13T06:16:19;18.83;;;4.73;;
37047;SDS011;23227;48.780;9.210;2023-10-13T06:19:40;12.43;;;4.47;;
37047;SDS011;23227;48.780;9.210;2023-10-13T06:23:00;13.57;;;4.37;;
37047;SDS011;23227;48.780;9.210;2023-10-13T06:26:20;9.53;;;4.13;;
37047;SDS011;23227;48.780;9.210;2023-10-13T06:29:42;10.33;;;4.20;;
37047;SDS011;23227;48.780;9.210;2023-10-13T06:32:47;10.13;;;4.60;;
37047;SDS011;23227;48.780;9.210;2023-10-13T06:35:52;9.83;;;4.57;;
37047;SDS011;23227;48.780;9.210;2023-10-13T06:38:57;12.67;;;4.13;;
37047;SDS011;23227;48.780;9.210;2023-10-13T06:42:26;11.40;;;4.53;;
37047;SDS011;23227;48.780;9.210;2023-10-13T06:48:37;14.67;;;4.77;;
37047;SDS011;23227;48.780;9.210;2023-10-13T06:51:41;11.93;;;4.80;;
37047;SDS011;23227;48.780;9.210;2023-10-13T06:54:44;10.70;;;3.88;;
37047;SDS011;23227;48.780;9.210;2023-10-13T07:00:51;12.60;;;3.90;;
37047;SDS011;23227;48.780;9.210;2023-10-13T07:04:00;14.63;;;4.47;;
37047;SDS011;23227;48.780;9.210;2023-10-13T07:07:04;7.63;;;3.40;;
37047;SDS011;23227;48.780;9.210;2023-10-13T07:10:08;6.63;;;3.63;;
37047;SDS011;23227;48.780;9.210;2023-10-13T07:13:11;9.17;;;3.63;;
37047;SDS011;23227;48.780;9.210;2023-10-13T07:16:16;9.47;;;3.63;;
37047;SDS011;23227;48.780;9.210;2023-10-13T07:19:30;13.57;;;4.67;;
37047;SDS011;23227;48.780;9.210;2023-10-13T07:22:37;8.50;;;4.23;;
37047;SDS011;23227;48.780;9.210;2023-10-13T07:25:41;7.93;;;3.60;;
37047;SDS011;23227;48.780;9.210;2023-10-13T07:28:45;11.60;;;4.37;;
37047;SDS011;23227;48.780;9.210;2023-10-13T07:31:49;10.43;;;3.55;;
37047;SDS011;23227;48.780;9.210;2023-10-13T07:34:53;19.70;;;3.87;;
37047;SDS011;23227;48.780;9.210;2023-10-13T07:37:58;9.37;;;3.60;;
37047;SDS011;23227;48.780;9.210;2023-10-13T07:41:02;9.63;;;4.17;;
37047;SDS011;23227;48.780;9.210;2023-10-13T07:44:09;10.10;;;3.80;;
37047;SDS011;23227;48.780;9.210;2023-10-13T07:47:15;9.77;;;3.83;;
37047;SDS011;23227;48.780;9.210;2023-10-13T07:50:21;9.37;;;3.40;;
37047;SDS011;23227;48.780;9.210;2023-10-13T07:53:27;7.67;;;3.73;;
37047;SDS011;23227;48.780;9.210;2023-10-13T07:56:35;12.00;;;3.67;;
37047;SDS011;23227;48.780;9.210;2023-10-13T07:59:40;10.80;;;3.57;;
37047;SDS011;23227;48.780;9.210;2023-10-13T08:02:56;6.63;;;3.40;;
37047;SDS011;23227;48.780;9.210;2023-10-13T08:06:11;8.80;;;3.67;;
37047;SDS011;23227;48.780;9.210;2023-10-13T08:09:29;9.33;;;3.70;;
37047;SDS011;23227;48.780;9.210;2023-10-13T08:12:40;8.90;;;3.70;;
37047;SDS011;23227;48.780;9.210;2023-10-13T08:15:45;6.70;;;3.50;;
37047;SDS011;23227;48.780;9.210;2023-10-13T08:18:51;11.63;;;3.77;;
37047;SDS011;23227;48.780;9.210;2023-10-13T08:21:54;8.27;;;3.60;;
37047;SDS011;23227;48.780;9.210;2023-10-13T08:25:01;12.50;;;3.50;;
37047;SDS011;23227;48.780;9.210;2023-10-13T08:28:21;8.53;;;3.80;;
37047;SDS011;23227;48.780;9.210;2023-10-13T08:31:45;6.25;;;3.30;;
37047;SDS011;23227;48.780;9.210;2023-10-13T08:35:07;7.63;;;3.70;;
37047;SDS011;23227;48.780;9.210;2023-10-13T08:38:24;13.97;;;3.93;;
37047;SDS011;23227;48.780;9.210;2023-10-13T08:41:32;11.40;;;3.03;;
37047;SDS011;23227;48.780;9.210;2023-10-13T08:44:40;10.73;;;3.33;;
37047;SDS011;23227;48.780;9.210;2023-10-13T08:47:48;7.20;;;2.77;;
37047;SDS011;23227;48.780;9.210;2023-10-13T08:50:56;10.70;;;3.13;;
37047;SDS011;23227;48.780;9.210;2023-10-13T08:54:05;9.60;;;3.33;;
37047;SDS011;23227;48.780;9.210;2023-10-13T08:57:20;6.90;;;2.83;;
37047;SDS011;23227;48.780;9.210;2023-10-13T09:00:34;8.93;;;3.67;;
37047;SDS011;23227;48.780;9.210;2023-10-13T09:03:51;8.80;;;3.00;;
37047;SDS011;23227;48.780;9.210;2023-10-13T09:06:57;7.67;;;2.93;;
37047;SDS011;23227;48.780;9.210;2023-10-13T09:10:08;7.90;;;2.90;;
37047;SDS011;23227;48.780;9.210;2023-10-13T09:13:34;8.53;;;3.03;;
37047;SDS011;23227;48.780;9.210;2023-10-13T09:16:45;8.67;;;3.07;;
37047;SDS011;23227;48.780;9.210;2023-10-13T09:20:09;6.00;;;2.92;;
37047;SDS011;23227;48.780;9.210;2023-10-13T09:23:34;7.50;;;3.40;;
37047;SDS011;23227;48.780;9.210;2023-10-13T09:26:46;7.60;;;3.00;;
37047;SDS011;23227;48.780;9.210;2023-10-13T09:29:54;8.57;;;3.20;;
37047;SDS011;23227;48.780;9.210;2023-10-13T09:32:59;9.33;;;3.20;;
37047;SDS011;23227;48.780;9.210;2023-10-13T09:36:06;7.80;;;3.00;;
37047;SDS011;23227;48.780;9.210;2023-10-13T09:39:10;7.53;;;2.90;;
37047;SDS011;23227;48.780;9.210;2023-10-13T09:42:14;5.83;;;2.77;;
37047;SDS011;23227;48.780;9.210;2023-10-13T09:45:19;4.30;;;2.43;;
37047;SDS011;23227;48.780;9.210;2023-10-13T09:48:31;5.50;;;2.63;;
37047;SDS011;23227;48.780;9.210;2023-10-13T09:51:35;7.03;;;2.53;;
37047;SDS011;23227;48.780;9.210;2023-10-13T09:54:39;9.55;;;2.70;;
37047;SDS011;23227;48.780;9.210;2023-10-13T09:57:49;8.87;;;2.63;;
37047;SDS011;23227;48.780;9.210;2023-10-13T10:00:59;9.50;;;2.80;;
37047;SDS011;23227;48.780;9.210;2023-10-13T10:04:09;9.10;;;3.07;;
37047;SDS011;23227;48.780;9.210;2023-10-13T10:07:23;15.47;;;3.37;;
37047;SDS011;23227;48.780;9.210;2023-10-13T10:10:32;9.18;;;2.50;;
37047;SDS011;23227;48.780;9.210;2023-10-13T10:13:49;5.20;;;2.50;;
37047;SDS011;23227;48.780;9.210;2023-10-13T10:17:02;8.40;;;2.77;;
37047;SDS011;23227;48.780;9.210;2023-10-13T10:20:10;8.77;;;3.30;;
37047;SDS011;23227;48.780;9.210;2023-10-13T10:23:23;8.13;;;2.90;;
37047;SDS011;23227;48.780;9.210;2023-10-13T10:26:29;7.33;;;2.67;;
37047;SDS011;23227;48.780;9.210;2023-10-13T10:29:32;4.77;;;2.30;;
37047;SDS011;23227;48.780;9.210;2023-10-13T10:35:38;9.73;;;2.38;;
37047;SDS011;23227;48.780;9.210;2023-10-13T10:38:53;4.30;;;2.60;;
37047;SDS011;23227;48.780;9.210;2023-10-13T10:42:08;6.57;;;2.33;;
37047;SDS011;23227;48.780;9.210;2023-10-13T10:45:16;8.30;;;2.30;;
37047;SDS011;23227;48.780;9.210;2023-10-13T10:48:23;6.20;;;2.63;;
37047;SDS011;23227;48.780;9.210;2023-10-13T10:51:32;8.57;;;2.63;;
37047;SDS011;23227;48.780;9.210;2023-10-13T10:54:36;6.73;;;2.40;;
37047;SDS011;23227;48.780;9.210;2023-10-13T10:57:46;8.73;;;2.10;;
37047;SDS011;23227;48.780;9.210;2023-10-13T11:00:50;10.63;;;2.63;;
37047;SDS011;23227;48.780;9.210;2023-10-13T11:04:04;6.78;;;2.83;;
37047;SDS011;23227;48.780;9.210;2023-10-13T11:07:10;5.53;;;2.40;;
37047;SDS011;23227;48.780;9.210;2023-10-13T11:10:24;4.00;;;2.20;;
37047;SDS011;23227;48.780;9.210;2023-10-13T11:13:40;5.57;;;2.20;;
37047;SDS011;23227;48.780;9.210;2023-10-13T11:16:52;6.97;;;2.85;;
37047;SDS011;23227;48.780;9.210;2023-10-13T11:19:56;6.93;;;2.17;;
37047;SDS011;23227;48.780;9.210;2023-10-13T11:22:59;5.70;;;2.05;;
37047;SDS011;23227;48.780;9.210;2023-10-13T11:26:06;4.57;;;2.30;;
37047;SDS011;23227;48.780;9.210;2023-10-13T11:29:10;8.60;;;2.40;;
37047;SDS011;23227;48.780;9.210;2023-10-13T11:32:13;5.07;;;2.30;;
37047;SDS011;23227;48.780;9.210;2023-10-13T11:35:21;4.43;;;2.00;;
37047;SDS011;23227;48.780;9.210;2023-10-13T11:38:26;7.50;;;2.43;;
37047;SDS011;23227;48.780;9.210;2023-10-13T11:41:30;4.93;;;2.60;;
37047;SDS011;23227;48.780;9.210;2023-10-13T11:44:38;4.43;;;1.83;;
37047;SDS011;23227;48.780;9.210;2023-10-13T11:47:44;3.17;;;2.20;;
37047;SDS011;23227;48.780;9.210;2023-10-13T11:50:50;6.07;;;2.10;;
37047;SDS011;23227;48.780;9.210;2023-10-13T11:53:53;4.25;;;2.17;;
37047;SDS011;23227;48.780;9.210;2023-10-13T11:56:57;6.17;;;2.40;;
37047;SDS011;23227;48.780;9.210;2023-10-13T12:00:01;5.33;;;2.10;;
37047;SDS011;23227;48.780;9.210;2023-10-13T12:03:28;5.33;;;1.97;;
37047;SDS011;23227;48.780;9.210;2023-10-13T12:06:49;5.13;;;1.93;;
37047;SDS011;23227;48.780;9.210;2023-10-13T12:10:04;5.30;;;2.37;;
37047;SDS011;23227;48.780;9.210;2023-10-13T12:13:08;4.67;;;2.13;;
37047;SDS011;23227;48.780;9.210;2023-10-13T12:16:13;4.80;;;2.20;;
37047;SDS011;23227;48.780;9.210;2023-10-13T12:19:21;6.73;;;2.30;;
37047;SDS011;23227;48.780;9.210;2023-10-13T12:22:26;4.40;;;2.20;;
37047;SDS011;23227;48.780;9.210;2023-10-13T12:25:30;2.73;;;1.90;;
37047;SDS011;23227;48.780;9.210;2023-10-13T12:28:45;5.90;;;2.17;;
37047;SDS011;23227;48.780;9.210;2023-10-13T12:31:54;4.90;;;2.00;;
37047;SDS011;23227;48.780;9.210;2023-10-13T12:35:09;4.77;;;2.13;;
37047;SDS011;23227;48.780;9.210;2023-10-13T12:38:31;3.40;;;1.90;;
37047;SDS011;23227;48.780;9.210;2023-10-13T12:41:52;8.07;;;2.43;;
37047;SDS011;23227;48.780;9.210;2023-10-13T12:45:12;4.33;;;1.90;;
37047;SDS011;23227;48.780;9.210;2023-10-13T12:48:34;3.83;;;1.97;;
37047;SDS011;23227;48.780;9.210;2023-10-13T12:51:56;3.60;;;2.00;;
37047;SDS011;23227;48.780;9.210;2023-10-13T12:54:59;8.68;;;2.55;;
37047;SDS011;23227;48.780;9.210;2023-10-13T12:58:08;5.10;;;2.50;;
37047;SDS011;23227;48.780;9.210;2023-10-13T13:01:11;6.53;;;2.10;;
37047;SDS011;23227;48.780;9.210;2023-10-13T13:04:16;7.43;;;2.50;;
37047;SDS011;23227;48.780;9.210;2023-10-13T13:07:22;5.97;;;1.87;;
37047;SDS011;23227;48.780;9.210;2023-10-13T13:10:30;6.50;;;2.23;;
37047;SDS011;23227;48.780;9.210;2023-10-13T13:13:39;6.47;;;2.03;;
37047;SDS011;23227;48.780;9.210;2023-10-13T13:16:42;9.25;;;1.70;;
37047;SDS011;23227;48.780;9.210;2023-10-13T13:19:51;7.83;;;2.00;;
37047;SDS011;23227;48.780;9.210;2023-10-13T13:22:54;6.67;;;1.90;;
37047;SDS011;23227;48.780;9.210;2023-10-13T13:25:57;6.13;;;2.00;;
37047;SDS011;23227;48.780;9.210;2023-10-13T13:29:00;5.73;;;2.00;;
37047;SDS011;23227;48.780;9.210;2023-10-13T13:32:02;6.55;;;2.40;;
37047;SDS011;23227;48.780;9.210;2023-10-13T13:35:08;5.23;;;1.80;;
37047;SDS011;23227;48.780;9.210;2023-10-13T13:38:15;5.30;;;1.73;;
37047;SDS011;23227;48.780;9.210;2023-10-13T13:41:23;6.03;;;1.80;;
37047;SDS011;23227;48.780;9.210;2023-10-13T13:44:26;3.03;;;1.55;;
37047;SDS011;23227;48.780;9.210;2023-10-13T13:47:37;3.60;;;1.60;;
37047;SDS011;23227;48.780;9.210;2023-10-13T13:50:41;5.28;;;2.17;;
37047;SDS011;23227;48.780;9.210;2023-10-13T13:53:46;3.73;;;2.27;;
37047;SDS011;23227;48.780;9.210;2023-10-13T13:56:49;3.33;;;1.73;;
37047;SDS011;23227;48.780;9.210;2023-10-13T13:59:52;3.08;;;1.80;;
37047;SDS011;23227;48.780;9.210;2023-10-13T14:02:55;4.10;;;2.00;;
37047;SDS011;23227;48.780;9.210;2023-10-13T14:06:01;4.23;;;2.07;;
37047;SDS011;23227;48.780;9.210;2023-10-13T14:09:04;3.03;;;2.03;;
37047;SDS011;23227;48.780;9.210;2023-10-13T14:12:15;4.27;;;1.90;;
37047;SDS011;23227;48.780;9.210;2023-10-13T14:15:43;5.43;;;1.53;;
37047;SDS011;23227;48.780;9.210;2023-10-13T14:18:48;5.77;;;1.70;;
37047;SDS011;23227;48.780;9.210;2023-10-13T14:21:52;2.60;;;1.63;;
37047;SDS011;23227;48.780;9.210;2023-10-13T14:24:55;5.87;;;1.70;;
37047;SDS011;23227;48.780;9.210;2023-10-13T14:27:58;4.40;;;1.70;;
37047;SDS011;23227;48.780;9.210;2023-10-13T14:31:04;8.73;;;2.47;;
37047;SDS011;23227;48.780;9.210;2023-10-13T14:34:11;4.17;;;1.73;;
37047;SDS011;23227;48.780;9.210;2023-10-13T14:40:28;5.40;;;1.83;;
37047;SDS011;23227;48.780;9.210;2023-10-13T14:46:34;3.53;;;1.83;;
37047;SDS011;23227;48.780;9.210;2023-10-13T14:49:40;9.33;;;1.60;;
37047;SDS011;23227;48.780;9.210;2023-10-13T14:55:47;7.77;;;1.70;;
37047;SDS011;23227;48.780;9.210;2023-10-13T14:58:52;10.32;;;2.30;;
37047;SDS011;23227;48.780;9.210;2023-10-13T15:04:58;8.82;;;2.45;;
37047;SDS011;23227;48.780;9.210;2023-10-13T15:08:05;11.00;;;2.00;;
37047;SDS011;23227;48.780;9.210;2023-10-13T15:11:08;16.13;;;2.63;;
37047;SDS011;23227;48.780;9.210;2023-10-13T15:14:14;15.02;;;3.05;;
37047;SDS011;23227;48.780;9.210;2023-10-13T15:17:16;10.73;;;2.67;;
37047;SDS011;23227;48.780;9.210;2023-10-13T15:20:19;13.93;;;2.47;;
37047;SDS011;23227;48.780;9.210;2023-10-13T15:23:23;18.35;;;3.45;;
37047;SDS011;23227;48.780;9.210;2023-10-13T15:26:26;9.97;;;3.00;;
37047;SDS011;23227;48.780;9.210;2023-10-13T15:29:30;18.35;;;2.08;;
37047;SDS011;23227;48.780;9.210;2023-10-13T15:32:38;8.45;;;2.15;;
37047;SDS011;23227;48.780;9.210;2023-10-13T15:35:44;11.57;;;1.92;;
37047;SDS011;23227;48.780;9.210;2023-10-13T15:38:48;17.95;;;2.83;;
37047;SDS011;23227;48.780;9.210;2023-10-13T15:41:53;5.93;;;2.75;;
37047;SDS011;23227;48.780;9.210;2023-10-13T15:44:59;13.53;;;2.30;;
37047;SDS011;23227;48.780;9.210;2023-10-13T15:48:16;8.02;;;2.08;;
37047;SDS011;23227;48.780;9.210;2023-10-13T15:51:22;6.13;;;2.10;;
37047;SDS011;23227;48.780;9.210;2023-10-13T15:54:26;14.80;;;3.10;;
37047;SDS011;23227;48.780;9.210;2023-10-13T15:57:29;6.67;;;2.40;;
37047;SDS011;23227;48.780;9.210;2023-10-13T16:00:37;7.93;;;2.97;;
37047;SDS011;23227;48.780;9.210;2023-10-13T16:03:40;17.95;;;2.10;;
37047;SDS011;23227;48.780;9.210;2023-10-13T16:06:45;14.13;;;2.60;;
37047;SDS011;23227;48.780;9.210;2023-10-13T16:09:52;12.23;;;2.67;;
37047;SDS011;23227;48.780;9.210;2023-10-13T16:13:00;14.33;;;2.90;;
37047;SDS011;23227;48.780;9.210;2023-10-13T16:16:02;16.13;;;2.97;;
37047;SDS011;23227;48.780;9.210;2023-10-13T16:19:05;17.13;;;3.93;;
37047;SDS011;23227;48.780;9.210;2023-10-13T16:22:08;13.18;;;3.55;;
37047;SDS011;23227;48.780;9.210;2023-10-13T16:25:13;22.90;;;3.83;;
37047;SDS011;23227;48.780;9.210;2023-10-13T16:28:20;32.37;;;5.33;;
37047;SDS011;23227;48.780;9.210;2023-10-13T16:31:23;25.90;;;4.73;;
37047;SDS011;23227;48.780;9.210;2023-10-13T16:34:29;28.23;;;6.37;;
37047;SDS011;23227;48.780;9.210;2023-10-13T16:37:31;30.95;;;5.65;;
37047;SDS011;23227;48.780;9.210;2023-10-13T16:40:36;32.90;;;5.30;;
37047;SDS011;23227;48.780;9.210;2023-10-13T16:43:41;20.67;;;4.83;;
37047;SDS011;23227;48.780;9.210;2023-10-13T16:46:43;29.55;;;5.07;;
37047;SDS011;23227;48.780;9.210;2023-10-13T16:49:46;19.77;;;6.25;;
37047;SDS011;23227;48.780;9.210;2023-10-13T16:52:49;22.70;;;4.70;;
37047;SDS011;23227;48.780;9.210;2023-10-13T16:55:53;27.45;;;5.65;;
37047;SDS011;23227;48.780;9.210;2023-10-13T16:59:02;23.43;;;5.67;;
37047;SDS011;23227;48.780;9.210;2023-10-13T17:02:06;27.43;;;5.70;;
37047;SDS011;23227;48.780;9.210;2023-10-13T17:05:09;26.73;;;5.47;;
37047;SDS011;23227;48.780;9.210;2023-10-13T17:08:13;19.40;;;5.00;;
37047;SDS011;23227;48.780;9.210;2023-10-13T17:11:17;31.30;;;5.72;;
37047;SDS011;23227;48.780;9.210;2023-10-13T17:14:21;24.23;;;5.43;;
37047;SDS011;23227;48.780;9.210;2023-10-13T17:17:24;30.50;;;5.38;;
37047;SDS011;23227;48.780;9.210;2023-10-13T17:20:27;16.90;;;4.97;;
37047;SDS011;23227;48.780;9.210;2023-10-13T17:23:29;30.67;;;5.45;;
37047;SDS011;23227;48.780;9.210;2023-10-13T17:26:37;27.00;;;5.20;;
37047;SDS011;23227;48.780;9.210;2023-10-13T17:29:39;22.90;;;5.60;;
37047;SDS011;23227;48.780;9.210;2023-10-13T17:32:43;12.23;;;4.70;;
37047;SDS011;23227;48.780;9.210;2023-10-13T17:35:46;23.50;;;6.22;;
37047;SDS011;23227;48.780;9.210;2023-10-13T17:38:48;26.52;;;5.95;;
37047;SDS011;23227;48.780;9.210;2023-10-13T17:41:54;18.17;;;5.20;;
37047;SDS011;23227;48.780;9.210;2023-10-13T17:44:57;26.77;;;6.00;;
37047;SDS011;23227;48.780;9.210;2023-10-13T17:48:00;19.33;;;5.03;;
37047;SDS011;23227;48.780;9.210;2023-10-13T17:51:03;21.38;;;5.55;;
37047;SDS011;23227;48.780;9.210;2023-10-13T17:54:06;19.40;;;5.13;;
37047;SDS011;23227;48.780;9.210;2023-10-13T18:00:15;20.33;;;4.30;;
37047;SDS011;23227;48.780;9.210;2023-10-13T18:03:24;27.33;;;4.90;;
37047;SDS011;23227;48.780;9.210;2023-10-13T18:09:32;18.43;;;4.90;;
37047;SDS011;23227;48.780;9.210;2023-10-13T18:12:36;12.02;;;4.70;;
37047;SDS011;23227;48.780;9.210;2023-10-13T18:15:39;15.37;;;4.67;;
37047;SDS011;23227;48.780;9.210;2023-10-13T18:18:42;19.52;;;4.75;;
37047;SDS011;23227;48.780;9.210;2023-10-13T18:21:45;20.90;;;4.80;;
37047;SDS011;23227;48.780;9.210;2023-10-13T18:24:48;14.20;;;4.63;;
37047;SDS011;23227;48.780;9.210;2023-10-13T18:27:52;19.55;;;5.22;;
37047;SDS011;23227;48.780;9.210;2023-10-13T18:30:57;17.37;;;4.03;;
37047;SDS011;23227;48.780;9.210;2023-10-13T18:34:02;15.30;;;3.87;;
37047;SDS011;23227;48.780;9.210;2023-10-13T18:37:05;20.23;;;5.15;;
37047;SDS011;23227;48.780;9.210;2023-10-13T18:40:11;14.17;;;4.50;;
37047;SDS011;23227;48.780;9.210;2023-10-13T18:43:16;8.23;;;3.40;;
37047;SDS011;23227;48.780;9.210;2023-10-13T18:46:19;19.93;;;4.20;;
37047;SDS011;23227;48.780;9.210;2023-10-13T18:49:23;13.70;;;4.67;;
37047;SDS011;23227;48.780;9.210;2023-10-13T18:52:26;14.97;;;3.63;;
37047;SDS011;23227;48.780;9.210;2023-10-13T18:55:29;14.90;;;4.07;;
37047;SDS011;23227;48.780;9.210;2023-10-13T18:58:33;12.10;;;4.40;;
37047;SDS011;23227;48.780;9.210;2023-10-13T19:01:36;14.90;;;3.97;;
37047;SDS011;23227;48.780;9.210;2023-10-13T19:04:39;11.67;;;3.60;;
37047;SDS011;23227;48.780;9.210;2023-10-13T19:07:42;16.95;;;5.10;;
37047;SDS011;23227;48.780;9.210;2023-10-13T19:10:44;13.00;;;3.55;;
37047;SDS011;23227;48.780;9.210;2023-10-13T19:13:49;15.05;;;3.85;;
37047;SDS011;23227;48.780;9.210;2023-10-13T19:16:53;18.63;;;4.70;;
37047;SDS011;23227;48.780;9.210;2023-10-13T19:19:59;14.57;;;4.37;;
37047;SDS011;23227;48.780;9.210;2023-10-13T19:23:04;13.87;;;3.73;;